Alyeska Resort
Hourly Weather - Mid Mountian Site
ALY_MID_HR 5/3/2016
CLICK TO VIEW GRAPH!!

        DATE  TIME   Air   H2o   H2o   New  Snow  BATT   Rel
                    Temp  Inch Since  Snow Depth  Volt  Hum%
                      F   1HR  0600   1HR         AVG   AVG

    5/3/2016 07:00    34  0.00  0.00  45.3 81.10 13.42    95
    5/3/2016 06:00    33  0.00  0.04  45.2 81.10 13.41    95
    5/3/2016 05:00    33  0.00  0.04  45.2 81.10 13.41    96
    5/3/2016 04:00    33  0.00  0.04  45.0 80.60 13.41    96
    5/3/2016 03:00    33  0.00  0.04  44.9 81.10 13.40    96
    5/3/2016 02:00    33  0.00  0.04  44.6 81.10 13.39    97
    5/3/2016 01:00    34  0.00  0.04  44.5 81.10 13.39    96
    5/2/2016 24:00    34  0.01  0.04  44.4 81.00 13.38    95
    5/2/2016 23:00    34  0.00  0.03  44.7 80.90 13.37    95
    5/2/2016 22:00    35  0.00  0.03  45.4 80.90 13.36    94
    5/2/2016 21:00    36  0.00  0.03  47.2 80.60 13.34    91
    5/2/2016 20:00    37  0.00  0.03  48.8 80.70 13.33    90
    5/2/2016 19:00    39  0.00  0.03  50.0 80.60 13.32    88
    5/2/2016 18:00    40  0.01  0.03  51.7 80.80 13.31    84
    5/2/2016 17:00    40  0.01  0.02  52.7 80.70 13.31    82
    5/2/2016 16:00    41  0.01  0.01  53.1 81.00 13.31    74
    5/2/2016 15:00    41  0.00  0.00  53.1 81.00 13.31    68
    5/2/2016 14:00    42  0.00  0.00  51.6 81.20 13.33    65
    5/2/2016 13:00    42  0.00  0.00  48.9 81.00 13.34    69
    5/2/2016 12:00    41  0.00  0.00  47.2 81.20 13.36    72
    5/2/2016 11:00    39  0.00  0.00  46.1 81.30 13.38    72
    5/2/2016 10:00    37  0.00  0.00  45.9 81.50 13.40    83
    5/2/2016 09:00    35  0.00  0.00  46.0 81.70 13.42    91
    5/2/2016 08:00    33  0.00  0.00  45.9 81.80 13.42    93


CLICK TO VIEW GRAPH!!